Terminal Aerodrome Forecast
Issued by NWS

Home | Current Version | Previous Version | Text Only | Print | Product List | Glossary On
Versions: 1 2 3 4 5 6 7 8 9 10 11
000
FTUS44 KLZK 272300
TAFLLQ
TAF
KLLQ 272320Z 2800/2824 35008G15KT P6SM VCSH SCT004 BKN008
      TEMPO 2800/2804 5SM -RA BR BKN004
     FM280400 01004KT 5SM -RA BKN012
      TEMPO 2804/2808 2SM BR BKN006
     FM281200 36004KT P6SM SCT008 OVC015
     FM282100 VRB03KT P6SM SCT025 SCT080=

USA.gov is the U.S. government's official web portal to all federal, state and local government web resources and services.